Time;durP1;ratioP1;P1;durP2;ratioP2;P2;SDS_P1;SDS_P2;PMS_P1;PMS_P2;Temp;Humidity;BMP_temperature;BMP_pressure;BME280_temperature;BME280_humidity;BME280_pressure;Samples;Min_cycle;Max_cycle;Signal;HPM_P1;HPM_P2
2022/12/22 06:03:42;;;;;;;3.45;0.60;;;11.20;99.90;;;;;;4851885;29;20046;-76
2022/12/22 06:06:07;;;;;;;7.75;1.17;;;11.20;99.90;;;;;;4854585;29;20045;-76
2022/12/22 06:08:33;;;;;;;3.75;0.75;;;11.10;99.90;;;;;;4853563;29;20307;-77
2022/12/22 06:10:59;;;;;;;3.65;0.50;;;10.90;99.90;;;;;;4854329;29;20184;-79
2022/12/22 06:13:41;;;;;;;1.85;0.50;;;10.90;99.90;;;;;;4853694;29;20223;-79
2022/12/22 06:16:09;;;;;;;2.10;0.60;;;10.80;99.90;;;;;;4837958;29;20371;-77
2022/12/22 06:18:38;;;;;;;2.83;0.57;;;10.70;99.90;;;;;;4853675;29;20058;-78
2022/12/22 06:21:03;;;;;;;;;;;10.70;99.90;;;;;;4837818;29;20239;-78
2022/12/22 06:23:31;;;;;;;4.25;0.60;;;10.60;99.90;;;;;;4853269;29;19908;-79
2022/12/22 06:26:00;;;;;;;5.82;0.85;;;10.60;99.90;;;;;;4853847;29;20327;-79
2022/12/22 06:28:29;;;;;;;3.15;0.70;;;10.50;99.90;;;;;;4837020;29;20034;-79
2022/12/22 06:30:55;;;;;;;5.63;0.98;;;10.40;99.90;;;;;;4854045;29;20040;-79
2022/12/22 06:33:21;;;;;;;1.85;0.60;;;10.40;99.90;;;;;;4853475;29;20030;-79
2022/12/22 06:35:47;;;;;;;5.57;1.02;;;10.40;99.90;;;;;;4853433;29;20036;-79
2022/12/22 06:38:13;;;;;;;6.55;1.23;;;10.40;99.90;;;;;;4853616;29;20045;-78
2022/12/22 06:40:39;;;;;;;5.10;0.90;;;10.40;99.90;;;;;;4853013;29;20041;-76
2022/12/22 06:43:07;;;;;;;4.55;1.02;;;10.40;99.90;;;;;;4853524;29;20057;-79
2022/12/22 06:45:37;;;;;;;6.60;1.23;;;10.40;99.90;;;;;;4836852;29;20203;-79
2022/12/22 06:48:03;;;;;;;5.28;0.80;;;10.50;99.90;;;;;;4853875;29;20037;-78
2022/12/22 06:50:29;;;;;;;7.70;1.02;;;10.60;99.90;;;;;;4836876;29;20068;-78
2022/12/22 06:52:55;;;;;;;6.90;1.63;;;10.70;99.90;;;;;;4837305;29;20038;-77
2022/12/22 06:55:21;;;;;;;3.53;0.90;;;10.80;99.90;;;;;;4853786;29;20030;-78
2022/12/22 06:57:47;;;;;;;4.15;1.08;;;10.80;99.90;;;;;;4852950;29;20049;-77
2022/12/22 07:00:13;;;;;;;4.95;0.88;;;10.80;99.90;;;;;;4837051;29;20034;-78
2022/12/22 07:02:39;;;;;;;8.18;1.83;;;11.10;99.90;;;;;;4854131;29;20046;-77
2022/12/22 07:05:05;;;;;;;4.68;0.90;;;11.20;99.90;;;;;;4853540;29;20037;-77
2022/12/22 07:07:31;;;;;;;7.45;1.23;;;11.20;99.90;;;;;;4852474;29;20035;-78
2022/12/22 07:09:56;;;;;;;8.15;1.45;;;11.30;99.90;;;;;;4852805;29;20090;-78
2022/12/22 07:12:23;;;;;;;6.68;1.42;;;11.40;99.90;;;;;;4852992;29;20038;-77
2022/12/22 07:14:49;;;;;;;5.10;0.93;;;11.50;99.90;;;;;;4852804;29;20030;-77
2022/12/22 07:17:15;;;;;;;3.92;0.80;;;11.50;99.90;;;;;;4853197;29;20162;-77
2022/12/22 07:19:41;;;;;;;3.63;0.88;;;11.50;99.90;;;;;;4821315;29;20057;-77
2022/12/22 07:22:07;;;;;;;6.10;1.35;;;11.40;99.90;;;;;;4852739;29;20042;-76
2022/12/22 07:24:33;;;;;;;5.13;1.17;;;11.50;99.90;;;;;;4852576;29;20096;-78
2022/12/22 07:26:59;;;;;;;7.85;1.70;;;11.50;99.90;;;;;;4852913;29;20037;-76
2022/12/22 07:29:25;;;;;;;6.13;1.42;;;11.50;99.90;;;;;;4852272;29;20045;-77
2022/12/22 07:31:51;;;;;;;5.15;1.23;;;11.50;99.90;;;;;;4852691;29;20042;-76
2022/12/22 07:34:17;;;;;;;6.85;1.10;;;11.50;99.90;;;;;;4853125;29;20215;-76
2022/12/22 07:36:43;;;;;;;7.75;1.27;;;11.40;99.90;;;;;;4861524;29;20029;-77
2022/12/22 07:39:10;;;;;;;9.02;1.23;;;11.40;99.90;;;;;;4854868;29;20072;-78
2022/12/22 07:44:20;;;;;;;5.25;1.17;;;11.60;99.90;;;;;;4854915;29;20038;-76
2022/12/22 07:46:46;;;;;;;7.97;1.45;;;11.70;99.90;;;;;;4854179;29;20108;-76
2022/12/22 07:51:57;;;;;;;6.70;1.40;;;11.60;99.90;;;;;;4870691;29;20041;-76
2022/12/22 07:54:23;;;;;;;6.68;1.05;;;11.60;99.90;;;;;;4854406;29;20217;-75
2022/12/22 07:56:49;;;;;;;8.45;1.42;;;11.50;99.90;;;;;;4870347;29;20026;-78
2022/12/22 07:59:15;;;;;;;6.57;0.70;;;11.50;99.90;;;;;;4871073;29;20025;-77
2022/12/22 08:01:49;;;;;;;6.85;1.50;;;11.50;99.90;;;;;;4870091;29;20049;-80
2022/12/22 08:04:15;;;;;;;6.38;0.98;;;11.40;99.90;;;;;;4840280;29;20037;-76
2022/12/22 08:06:41;;;;;;;5.97;1.13;;;11.30;99.90;;;;;;4851856;29;20045;-76
2022/12/22 08:09:08;;;;;;;4.93;1.20;;;11.20;99.90;;;;;;4852362;29;20211;-76
2022/12/22 08:11:34;;;;;;;7.10;1.42;;;11.10;99.90;;;;;;4835636;29;20041;-79
2022/12/22 08:13:59;;;;;;;6.15;1.13;;;11.10;99.90;;;;;;4835790;29;20026;-76
2022/12/22 08:16:25;;;;;;;7.22;1.00;;;11.10;99.90;;;;;;4852069;29;20033;-76
2022/12/22 08:18:58;;;;;;;5.00;1.05;;;11.10;99.90;;;;;;4851464;29;20307;-78
2022/12/22 08:21:24;;;;;;;3.80;1.13;;;11.10;99.90;;;;;;4851405;29;20068;-78
2022/12/22 08:23:50;;;;;;;4.75;0.80;;;11.00;99.90;;;;;;4851637;29;20068;-77
2022/12/22 08:26:40;;;;;;;4.63;1.10;;;11.00;99.90;;;;;;4851959;29;20066;-76
2022/12/22 08:29:17;;;;;;;4.22;0.95;;;11.10;99.90;;;;;;4851829;29;20029;-75
2022/12/22 08:31:43;;;;;;;6.90;1.52;;;11.10;99.90;;;;;;4854649;29;20065;-75
2022/12/22 08:34:13;;;;;;;7.28;1.10;;;11.10;99.90;;;;;;4847098;29;20276;-75
2022/12/22 08:36:42;;;;;;;5.78;1.00;;;11.10;99.90;;;;;;4854634;29;20026;-76
2022/12/22 08:39:09;;;;;;;3.47;0.98;;;11.10;99.90;;;;;;4835101;29;20218;-76
2022/12/22 08:44:31;;;;;;;9.80;1.55;;;11.10;99.90;;;;;;4842813;29;20033;-77
2022/12/22 08:46:58;;;;;;;5.28;1.60;;;11.10;99.90;;;;;;4851406;29;20045;-75
2022/12/22 08:49:25;;;;;;;9.13;1.45;;;11.20;99.90;;;;;;4865946;29;20033;-77
2022/12/22 08:51:51;;;;;;;7.35;1.30;;;11.20;99.90;;;;;;4869754;29;20033;-76
2022/12/22 08:54:17;;;;;;;12.05;1.73;;;11.30;99.90;;;;;;4858173;29;20106;-76
2022/12/22 08:56:43;;;;;;;6.90;1.40;;;11.40;99.90;;;;;;4851292;29;20037;-77
2022/12/22 08:59:09;;;;;;;8.88;1.52;;;11.40;99.90;;;;;;4851498;29;20033;-77
2022/12/22 09:01:37;;;;;;;9.15;1.63;;;11.40;99.90;;;;;;4850275;29;20049;-75
2022/12/22 09:04:04;;;;;;;9.77;1.95;;;11.40;99.90;;;;;;4863908;29;20033;-74
2022/12/22 09:06:30;;;;;;;9.05;1.90;;;11.50;99.90;;;;;;4869985;29;20045;-75
2022/12/22 09:09:01;;;;;;;7.32;1.35;;;11.60;99.90;;;;;;4869618;29;20335;-74
2022/12/22 09:11:28;;;;;;;6.90;1.75;;;11.80;99.90;;;;;;4857399;29;20235;-77
2022/12/22 09:13:56;;;;;;;5.55;1.38;;;11.90;99.90;;;;;;4850717;29;20044;-74
2022/12/22 09:16:23;;;;;;;8.45;1.60;;;12.10;99.90;;;;;;4851504;29;20105;-78
2022/12/22 09:18:49;;;;;;;5.20;1.52;;;12.30;99.90;;;;;;4851023;29;20112;-78
2022/12/22 09:21:16;;;;;;;5.43;1.08;;;12.40;99.90;;;;;;4834823;29;20030;-78
2022/12/22 09:23:42;;;;;;;6.70;1.13;;;12.10;99.90;;;;;;4850512;29;20030;-78
2022/12/22 09:26:13;;;;;;;7.63;1.45;;;11.80;99.90;;;;;;4850817;29;20319;-78
2022/12/22 09:28:39;;;;;;;7.60;1.27;;;11.50;99.90;;;;;;4850750;29;20037;-80
2022/12/22 09:31:05;;;;;;;6.32;1.23;;;11.20;99.90;;;;;;4818818;29;20235;-81
2022/12/22 09:33:32;;;;;;;10.88;1.23;;;10.90;99.90;;;;;;4836237;29;20041;-80
2022/12/22 09:36:16;;;;;;;5.80;1.25;;;10.80;99.90;;;;;;4825556;29;20037;-79
2022/12/22 09:38:42;;;;;;;7.70;1.17;;;10.70;99.90;;;;;;4857376;29;20119;-79
2022/12/22 09:41:23;;;;;;;9.02;1.85;;;10.70;99.90;;;;;;4840846;29;20041;-80
2022/12/22 09:43:49;;;;;;;6.15;1.23;;;10.60;99.90;;;;;;4857433;29;20093;-78
2022/12/22 09:46:27;;;;;;;7.80;1.35;;;10.60;99.90;;;;;;4840928;29;20049;-79
2022/12/22 09:48:53;;;;;;;8.10;1.45;;;10.60;99.90;;;;;;4842047;29;20527;-80
2022/12/22 09:51:20;;;;;;;7.68;1.55;;;10.60;99.90;;;;;;4845038;29;20044;-79
2022/12/22 09:53:51;;;;;;;8.38;1.30;;;10.50;99.90;;;;;;4862013;29;20075;-78
2022/12/22 09:56:17;;;;;;;4.85;1.30;;;10.50;99.90;;;;;;4847764;29;20109;-78
2022/12/22 09:58:44;;;;;;;8.55;1.85;;;10.50;99.90;;;;;;4857929;29;20022;-78
2022/12/22 10:01:13;;;;;;;11.80;1.95;;;10.60;99.90;;;;;;4841684;29;20033;-78
2022/12/22 10:03:52;;;;;;;7.53;1.02;;;10.60;99.90;;;;;;4866305;29;20049;-80
2022/12/22 10:06:37;;;;;;;9.07;1.33;;;10.70;99.90;;;;;;4834264;29;20041;-80
2022/12/22 10:09:26;;;;;;;6.80;1.15;;;10.70;99.90;;;;;;4838593;29;20034;-80
2022/12/22 10:11:54;;;;;;;6.68;1.17;;;10.90;99.90;;;;;;4821809;29;20034;-80
2022/12/22 10:14:20;;;;;;;;;;;10.90;99.90;;;;;;4812465;29;20030;-81
2022/12/22 10:16:46;;;;;;;7.85;1.08;;;11.00;99.90;;;;;;4825082;29;19943;-80
2022/12/22 10:19:13;;;;;;;5.45;0.95;;;11.00;99.90;;;;;;4825641;29;20038;-80
2022/12/22 10:21:39;;;;;;;7.50;1.38;;;11.10;99.90;;;;;;4857015;29;20045;-79
2022/12/22 10:24:26;;;;;;;6.90;0.90;;;11.30;99.90;;;;;;4824990;29;20298;-79
2022/12/22 10:26:57;;;;;;;3.90;0.80;;;11.50;99.90;;;;;;4836543;29;20027;-79
2022/12/22 10:29:24;;;;;;;3.75;1.10;;;11.60;99.90;;;;;;4838561;29;20066;-79
2022/12/22 10:31:56;;;;;;;4.80;0.85;;;11.60;99.90;;;;;;4825025;29;20129;-78
2022/12/22 10:34:22;;;;;;;5.32;1.02;;;11.60;99.90;;;;;;4837205;29;20026;-79
2022/12/22 10:36:52;;;;;;;6.10;1.25;;;11.60;99.90;;;;;;4842982;29;20042;-80
2022/12/22 10:39:33;;;;;;;4.28;1.02;;;11.50;99.90;;;;;;4844522;29;20036;-79
2022/12/22 10:42:05;;;;;;;3.45;1.13;;;11.40;99.90;;;;;;4858218;29;20311;-79
2022/12/22 10:44:33;;;;;;;5.93;0.90;;;11.30;99.90;;;;;;4870764;29;20086;-78
2022/12/22 10:47:10;;;;;;;7.10;0.82;;;11.40;99.90;;;;;;4836970;29;20115;-79
2022/12/22 10:49:40;;;;;;;5.70;0.85;;;11.40;99.90;;;;;;4834311;29;20078;-82
2022/12/22 10:52:16;;;;;;;6.05;1.58;;;11.40;99.90;;;;;;4834437;29;20030;-81
2022/12/22 10:54:43;;;;;;;4.53;1.10;;;11.20;99.90;;;;;;4834950;29;20304;-80
2022/12/22 10:57:12;;;;;;;6.93;2.43;;;11.20;99.90;;;;;;4835490;29;20046;-78
2022/12/22 10:59:47;;;;;;;7.10;1.30;;;11.30;99.90;;;;;;4834595;29;20050;-79
2022/12/22 11:02:22;;;;;;;6.65;1.15;;;11.30;99.90;;;;;;4818529;29;20270;-79
2022/12/22 11:04:51;;;;;;;5.57;2.17;;;11.40;99.90;;;;;;4870922;29;20029;-78
2022/12/22 11:07:17;;;;;;;5.75;0.98;;;11.30;99.90;;;;;;4872224;29;20022;-78
2022/12/22 11:09:43;;;;;;;7.40;1.80;;;11.40;99.90;;;;;;4839340;29;20319;-79
2022/12/22 11:12:58;;;;;;;4.93;1.27;;;11.50;99.90;;;;;;4855330;29;20122;-78
2022/12/22 11:15:47;;;;;;;5.32;1.00;;;11.60;99.90;;;;;;4784487;30;20216;-79
2022/12/22 11:18:41;;;;;;;4.18;1.00;;;11.60;99.90;;;;;;4778848;30;20341;-78
2022/12/22 11:21:29;;;;;;;5.00;0.90;;;11.80;99.90;;;;;;4825384;29;20054;-78
2022/12/22 11:24:14;;;;;;;;;;;11.90;99.90;;;;;;4834774;29;20323;-78
2022/12/22 11:27:21;;;;;;;4.70;1.42;;;12.00;99.90;;;;;;4848418;29;20104;-78
2022/12/22 11:30:02;;;;;;;4.47;0.98;;;12.30;99.90;;;;;;4835959;29;20029;-78
2022/12/22 11:32:50;;;;;;;5.53;0.77;;;12.40;99.90;;;;;;4853276;29;20030;-80
2022/12/22 11:35:29;;;;;;;3.55;0.70;;;12.60;99.90;;;;;;4853226;29;20312;-81
2022/12/22 11:38:25;;;;;;;3.33;0.80;;;12.60;99.90;;;;;;4853305;29;20036;-75
2022/12/22 11:41:30;;;;;;;5.32;1.00;;;12.50;99.90;;;;;;4832429;29;20045;-76
2022/12/22 11:44:24;;;;;;;3.70;0.60;;;12.50;99.90;;;;;;4833770;29;20327;-76
2022/12/22 11:47:01;;;;;;;4.80;0.80;;;12.40;99.90;;;;;;4813996;29;20049;-80
2022/12/22 11:50:03;;;;;;;3.08;0.60;;;12.40;99.90;;;;;;4834196;29;20208;-79
2022/12/22 11:53:14;;;;;;;3.35;0.50;;;12.60;99.90;;;;;;4851824;29;20053;-79
2022/12/22 11:59:37;;;;;;;3.85;0.57;;;13.30;99.90;;;;;;4851575;29;20033;-80
2022/12/22 12:03:05;;;;;;;3.28;0.60;;;13.60;99.90;;;;;;4851242;29;20311;-76
2022/12/22 12:05:48;;;;;;;;;;;14.30;99.90;;;;;;4796439;29;20046;-78
2022/12/22 12:08:17;;;;;;;3.95;0.50;;;14.70;99.90;;;;;;4836277;29;19908;-80
2022/12/22 12:10:45;;;;;;;;;;;15.00;99.90;;;;;;4836273;29;20034;-78
2022/12/22 12:13:36;;;;;;;1.73;0.43;;;15.00;99.90;;;;;;4852269;29;19941;-80
2022/12/22 12:16:22;;;;;;;1.38;0.30;;;14.70;99.90;;;;;;4851558;29;20053;-78
2022/12/22 12:19:05;;;;;;;2.42;0.38;;;14.80;99.90;;;;;;4851689;29;20038;-76
2022/12/22 12:22:03;;;;;;;1.70;0.38;;;15.10;99.90;;;;;;4858444;29;20131;-77
2022/12/22 12:25:02;;;;;;;2.25;0.50;;;15.50;99.90;;;;;;4861236;29;20058;-79
2022/12/22 12:27:55;;;;;;;4.00;0.52;;;15.80;99.90;;;;;;4851776;29;20083;-78
2022/12/22 12:31:54;;;;;;;2.60;0.50;;;16.00;99.90;;;;;;4835647;29;20029;-75
2022/12/22 12:34:30;;;;;;;6.80;0.80;;;15.60;99.90;;;;;;4813290;29;20046;-79
2022/12/22 12:44:23;;;;;;;1.73;0.32;;;14.40;99.90;;;;;;4835434;29;20311;-79
2022/12/22 12:47:01;;;;;;;3.45;0.60;;;14.30;99.90;;;;;;4835126;29;20034;-77
2022/12/22 12:49:32;;;;;;;3.93;0.63;;;13.90;99.90;;;;;;4851774;29;20029;-78
2022/12/22 12:52:49;;;;;;;2.72;0.35;;;13.60;99.90;;;;;;4851235;29;20049;-80
2022/12/22 12:55:32;;;;;;;2.42;0.40;;;13.50;99.90;;;;;;4850579;29;20043;-77
2022/12/22 12:58:03;;;;;;;1.52;0.38;;;13.30;99.90;;;;;;4852710;29;20057;-82
2022/12/22 13:00:37;;;;;;;2.90;0.50;;;13.20;99.90;;;;;;4853493;29;20029;-78
2022/12/22 13:03:28;;;;;;;1.92;0.40;;;13.10;99.90;;;;;;4869042;29;20072;-76
2022/12/22 13:05:56;;;;;;;2.72;0.40;;;13.20;99.90;;;;;;4837403;29;20320;-77
2022/12/22 13:08:28;;;;;;;2.97;0.55;;;13.20;99.90;;;;;;4869424;29;20037;-78
2022/12/22 13:11:00;;;;;;;1.98;0.40;;;13.20;99.90;;;;;;4852915;29;20307;-77
2022/12/22 13:13:26;;;;;;;2.33;0.40;;;13.30;99.90;;;;;;4853076;29;20037;-75
2022/12/22 13:16:01;;;;;;;2.10;0.40;;;13.30;99.90;;;;;;4869129;29;20335;-76
2022/12/22 13:18:29;;;;;;;3.10;0.60;;;13.30;99.90;;;;;;4852924;29;20037;-77
2022/12/22 13:21:02;;;;;;;2.13;0.40;;;13.30;99.90;;;;;;4857616;29;20033;-77
2022/12/22 13:23:35;;;;;;;3.15;0.50;;;13.30;99.90;;;;;;4835217;29;20045;-76
2022/12/22 13:26:17;;;;;;;1.88;0.55;;;13.20;99.90;;;;;;4850951;29;20057;-77
2022/12/22 13:28:48;;;;;;;2.13;0.55;;;13.10;99.90;;;;;;4851421;29;20030;-77
2022/12/22 13:31:23;;;;;;;2.58;1.05;;;13.00;99.90;;;;;;4851524;29;20090;-77
2022/12/22 13:34:16;;;;;;;3.22;0.77;;;12.90;99.90;;;;;;4850748;29;20022;-77
2022/12/22 13:36:42;;;;;;;2.63;0.30;;;12.90;99.90;;;;;;4851448;29;20038;-77
2022/12/22 13:39:13;;;;;;;2.92;0.52;;;12.80;99.90;;;;;;4853922;29;20033;-76
2022/12/22 13:41:41;;;;;;;2.17;0.30;;;12.80;99.90;;;;;;4869275;29;20056;-76
2022/12/22 13:44:14;;;;;;;2.17;0.40;;;12.90;99.90;;;;;;4867996;29;20053;-77
2022/12/22 13:46:40;;;;;;;2.33;0.60;;;12.90;99.90;;;;;;4851086;29;20219;-77
2022/12/22 13:49:11;;;;;;;2.35;0.65;;;13.00;99.90;;;;;;4834704;29;20256;-78
2022/12/22 13:51:38;;;;;;;20.75;12.65;;;13.10;99.90;;;;;;4832044;29;20220;-78
2022/12/22 13:54:26;;;;;;;3.08;1.15;;;13.20;99.90;;;;;;4833014;29;20046;-79
2022/12/22 13:56:55;;;;;;;1.65;0.38;;;13.30;99.90;;;;;;4832890;29;20194;-78
2022/12/22 13:59:27;;;;;;;2.58;0.50;;;13.30;99.90;;;;;;4834019;29;20026;-79
2022/12/22 14:02:01;;;;;;;2.45;0.50;;;13.20;99.90;;;;;;4832337;29;20074;-76
2022/12/22 14:04:28;;;;;;;2.97;0.50;;;13.20;99.90;;;;;;4816713;29;20316;-78
2022/12/22 14:06:54;;;;;;;1.63;0.50;;;13.20;99.90;;;;;;4832968;29;20042;-78
2022/12/22 14:09:25;;;;;;;2.95;0.40;;;13.10;99.90;;;;;;4832345;29;20033;-77
2022/12/22 14:12:01;;;;;;;1.65;0.40;;;13.10;99.90;;;;;;4816249;29;20105;-79
2022/12/22 14:14:39;;;;;;;3.72;0.40;;;13.20;99.90;;;;;;4816472;29;20115;-79
2022/12/22 14:17:41;;;;;;;5.13;0.75;;;13.30;99.90;;;;;;4832269;29;20038;-80
2022/12/22 14:20:36;;;;;;;2.45;0.30;;;13.50;99.90;;;;;;4820303;29;20042;-79
2022/12/22 14:23:13;;;;;;;4.07;0.60;;;13.50;99.90;;;;;;4837176;29;20029;-79
2022/12/22 14:25:41;;;;;;;4.13;1.00;;;13.80;99.90;;;;;;4837381;29;20321;-80
2022/12/22 14:28:34;;;;;;;4.00;1.00;;;13.90;99.90;;;;;;4853647;29;20036;-79
2022/12/22 14:31:02;;;;;;;5.03;0.73;;;14.10;99.90;;;;;;4822868;29;20109;-79
2022/12/22 14:33:31;;;;;;;4.65;1.58;;;14.00;99.90;;;;;;4853794;29;20053;-78
2022/12/22 14:36:16;;;;;;;;;;;13.80;99.90;;;;;;4853998;29;20029;-80
2022/12/22 14:38:52;;;;;;;3.53;0.80;;;13.80;99.90;;;;;;4849539;29;20091;-77
2022/12/22 14:41:40;;;;;;;4.97;0.68;;;13.60;99.90;;;;;;4819381;29;20347;-80
2022/12/22 14:44:21;;;;;;;4.72;1.00;;;13.40;99.90;;;;;;4836731;29;20030;-80
2022/12/22 14:47:19;;;;;;;3.55;0.82;;;13.40;99.90;;;;;;4842287;29;20037;-78
2022/12/22 14:49:45;;;;;;;;;;;13.20;99.90;;;;;;4808421;29;20331;-78
2022/12/22 14:52:34;;;;;;;;;;;13.20;99.90;;;;;;4847458;29;20250;-81
2022/12/22 14:55:03;;;;;;;4.35;0.85;;;13.10;99.90;;;;;;4849139;29;19947;-80
2022/12/22 14:57:31;;;;;;;;;;;13.00;99.90;;;;;;4849153;29;20038;-81
2022/12/22 15:00:27;;;;;;;5.82;1.05;;;12.80;99.90;;;;;;4845952;29;20101;-78
2022/12/22 15:03:00;;;;;;;5.55;1.15;;;12.60;99.90;;;;;;4853172;29;20052;-79
2022/12/22 15:05:27;;;;;;;6.53;1.55;;;12.50;99.90;;;;;;4853551;29;20093;-76
2022/12/22 15:08:31;;;;;;;7.60;1.55;;;12.40;99.90;;;;;;4855448;29;20098;-79
2022/12/22 15:11:14;;;;;;;7.40;1.08;;;12.30;99.90;;;;;;4827360;29;20049;-79
2022/12/22 15:13:55;;;;;;;12.02;1.50;;;12.20;99.90;;;;;;4837241;29;20037;-77
2022/12/22 15:16:26;;;;;;;5.32;0.95;;;12.10;99.90;;;;;;4837524;29;20334;-78
2022/12/22 15:19:04;;;;;;;7.00;1.30;;;12.00;99.90;;;;;;4854117;29;20105;-78
2022/12/22 15:21:46;;;;;;;5.47;1.25;;;11.90;99.90;;;;;;4836394;29;20037;-79
2022/12/22 15:24:17;;;;;;;5.13;1.88;;;11.90;99.90;;;;;;4837276;29;20056;-79
2022/12/22 15:27:13;;;;;;;7.10;1.17;;;11.90;99.90;;;;;;4835827;29;20038;-80
2022/12/22 15:29:45;;;;;;;10.05;1.48;;;11.80;99.90;;;;;;4831556;29;20048;-76
2022/12/22 15:32:46;;;;;;;5.60;1.08;;;11.80;99.90;;;;;;4836331;29;20331;-80
2022/12/22 15:36:08;;;;;;;8.23;1.17;;;11.80;99.90;;;;;;4854084;29;20037;-78
2022/12/22 15:38:52;;;;;;;5.82;1.17;;;11.70;99.90;;;;;;4853161;29;20029;-77
2022/12/22 15:41:30;;;;;;;5.70;1.35;;;11.60;99.90;;;;;;4847954;29;20045;-78
2022/12/22 15:44:08;;;;;;;5.45;1.23;;;11.50;99.90;;;;;;4821299;29;20109;-80
2022/12/22 15:46:41;;;;;;;6.93;1.00;;;11.50;99.90;;;;;;4835565;29;20118;-79
2022/12/22 15:49:29;;;;;;;6.75;1.77;;;11.50;99.90;;;;;;4819018;29;20034;-78
2022/12/22 15:52:21;;;;;;;5.28;1.10;;;11.50;99.90;;;;;;4829396;29;20102;-78
2022/12/22 15:54:47;;;;;;;5.75;1.30;;;11.40;99.90;;;;;;4854500;29;20040;-80
2022/12/22 15:57:13;;;;;;;6.70;1.08;;;11.40;99.90;;;;;;4836422;29;20065;-79
2022/12/22 15:59:39;;;;;;;4.75;1.15;;;11.40;99.90;;;;;;4836899;29;20037;-78
2022/12/22 16:02:12;;;;;;;4.90;0.98;;;11.30;99.90;;;;;;4835843;29;20198;-79
2022/12/22 16:04:41;;;;;;;4.70;1.02;;;11.20;99.90;;;;;;4836124;29;20033;-80
2022/12/22 16:07:11;;;;;;;5.35;1.48;;;11.30;99.90;;;;;;4852139;29;20083;-77
2022/12/22 16:09:42;;;;;;;5.28;1.10;;;11.20;99.90;;;;;;4836056;29;20176;-76
2022/12/22 16:12:17;;;;;;;6.13;1.60;;;11.20;99.90;;;;;;4835487;29;20080;-79
2022/12/22 16:14:46;;;;;;;5.85;1.08;;;11.10;99.90;;;;;;4832799;29;20078;-77
2022/12/22 16:17:20;;;;;;;12.88;4.38;;;11.10;99.90;;;;;;4829192;29;20213;-75
2022/12/22 16:19:46;;;;;;;8.05;1.58;;;11.00;99.90;;;;;;4834249;29;20300;-76
2022/12/22 16:22:14;;;;;;;6.50;1.60;;;11.00;99.90;;;;;;4830633;29;20058;-79
2022/12/22 16:24:51;;;;;;;8.80;1.35;;;10.90;99.90;;;;;;4832812;29;20030;-76
2022/12/22 16:27:16;;;;;;;8.90;1.42;;;10.90;99.90;;;;;;4833157;29;20075;-76
2022/12/22 16:29:47;;;;;;;7.68;1.17;;;10.90;99.90;;;;;;4832448;29;20044;-77
2022/12/22 16:32:26;;;;;;;12.18;2.30;;;10.80;99.90;;;;;;4831288;29;20027;-76
2022/12/22 16:35:08;;;;;;;7.28;1.55;;;10.80;99.90;;;;;;4814733;29;20336;-76
2022/12/22 16:37:34;;;;;;;8.70;1.50;;;10.80;99.90;;;;;;4798755;29;20026;-76
2022/12/22 16:40:00;;;;;;;4.70;1.30;;;10.80;99.90;;;;;;4814723;29;20234;-75
2022/12/22 16:42:25;;;;;;;7.88;1.92;;;10.70;99.90;;;;;;4813914;29;20033;-77
2022/12/22 16:44:51;;;;;;;10.43;2.00;;;10.70;99.90;;;;;;4814856;29;20039;-78
2022/12/22 16:47:27;;;;;;;7.43;1.35;;;10.70;99.90;;;;;;4813249;29;20313;-77
2022/12/22 16:49:53;;;;;;;8.48;1.98;;;10.80;99.90;;;;;;4814110;29;20035;-76
2022/12/22 16:52:36;;;;;;;9.13;1.70;;;10.80;99.90;;;;;;4814787;29;20060;-79
2022/12/22 16:55:04;;;;;;;10.88;1.90;;;10.80;99.90;;;;;;4828691;29;20079;-76
2022/12/22 16:57:30;;;;;;;10.43;1.88;;;10.90;99.90;;;;;;4813791;29;20038;-76
2022/12/22 16:59:58;;;;;;;9.00;1.90;;;10.80;99.90;;;;;;4813758;29;20326;-77
2022/12/22 17:02:28;;;;;;;8.02;1.70;;;10.80;99.90;;;;;;4803403;29;20333;-77
2022/12/22 17:04:58;;;;;;;9.32;1.73;;;10.80;99.90;;;;;;4841416;29;20055;-76
2022/12/22 17:07:27;;;;;;;11.32;2.17;;;10.90;99.90;;;;;;4831902;29;20254;-75
2022/12/22 17:09:57;;;;;;;11.82;2.28;;;10.90;99.90;;;;;;4832871;29;20090;-77
2022/12/22 17:12:35;;;;;;;9.48;3.40;;;10.90;99.90;;;;;;4831091;29;20053;-75
2022/12/22 17:15:04;;;;;;;11.77;2.22;;;10.90;99.90;;;;;;4831181;29;20034;-76
2022/12/22 17:17:30;;;;;;;9.40;2.28;;;10.90;99.90;;;;;;4832875;29;20050;-75
2022/12/22 17:19:56;;;;;;;12.73;2.50;;;10.90;99.90;;;;;;4829710;29;20037;-75
2022/12/22 17:22:30;;;;;;;10.32;2.47;;;10.80;99.90;;;;;;4832450;29;20070;-79
2022/12/22 17:25:00;;;;;;;9.82;2.17;;;10.80;99.90;;;;;;4832273;29;20087;-78
2022/12/22 17:27:48;;;;;;;10.82;2.85;;;10.80;99.90;;;;;;4831580;29;20041;-75
2022/12/22 17:30:32;;;;;;;8.32;2.17;;;10.70;99.90;;;;;;4828361;29;20056;-82
2022/12/22 17:32:58;;;;;;;13.30;2.63;;;10.70;99.90;;;;;;4829114;29;20034;-79
2022/12/22 17:35:32;;;;;;;11.75;2.67;;;10.70;99.90;;;;;;4813391;29;20042;-82
2022/12/22 17:38:03;;;;;;;14.70;2.40;;;10.60;99.90;;;;;;4813904;29;20038;-80
2022/12/22 17:40:46;;;;;;;14.05;2.47;;;10.60;99.90;;;;;;4814810;29;20097;-80
2022/12/22 17:43:17;;;;;;;11.90;2.83;;;10.50;99.90;;;;;;4828347;29;20126;-80
2022/12/22 17:45:46;;;;;;;11.73;2.42;;;10.60;99.90;;;;;;4814500;29;20306;-80
2022/12/22 17:48:25;;;;;;;15.73;3.17;;;10.60;99.90;;;;;;4813304;29;20031;-80
2022/12/22 17:50:50;;;;;;;;;;;10.80;99.90;;;;;;4814937;29;20147;-79
2022/12/22 17:53:18;;;;;;;15.00;3.25;;;10.90;99.90;;;;;;4812978;29;19909;-79
2022/12/22 17:55:45;;;;;;;11.23;2.60;;;11.00;99.90;;;;;;4815568;29;20039;-77
2022/12/22 17:58:17;;;;;;;12.57;2.67;;;10.90;99.90;;;;;;4817526;29;20034;-77
2022/12/22 18:00:49;;;;;;;11.32;3.05;;;10.80;99.90;;;;;;4817993;29;20235;-79
2022/12/22 18:03:15;;;;;;;12.60;3.08;;;10.80;99.90;;;;;;4831426;29;20407;-78
2022/12/22 18:05:45;;;;;;;13.38;3.03;;;10.80;99.90;;;;;;4830415;29;20034;-77
2022/12/22 18:08:15;;;;;;;12.48;4.22;;;10.70;99.90;;;;;;4853245;29;20308;-77
2022/12/22 18:10:42;;;;;;;11.43;2.95;;;10.80;99.90;;;;;;4837961;29;20189;-77
2022/12/22 18:13:16;;;;;;;18.85;2.75;;;10.70;99.90;;;;;;4855011;29;20045;-78
2022/12/22 18:15:42;;;;;;;13.40;3.50;;;10.70;99.90;;;;;;4854172;29;20034;-78
2022/12/22 18:18:12;;;;;;;17.50;3.00;;;10.70;99.90;;;;;;4853023;29;20042;-78
2022/12/22 18:20:38;;;;;;;21.38;3.47;;;10.70;99.90;;;;;;4845069;29;20019;-78
2022/12/22 18:23:15;;;;;;;12.80;3.08;;;10.70;99.90;;;;;;4834045;29;20331;-80
2022/12/22 18:25:41;;;;;;;10.75;2.63;;;10.70;99.90;;;;;;4834635;29;20034;-79
2022/12/22 18:28:17;;;;;;;12.23;2.35;;;10.70;99.90;;;;;;4834056;29;20277;-80
2022/12/22 18:30:48;;;;;;;16.15;2.95;;;10.70;99.90;;;;;;4835132;29;20087;-78
2022/12/22 18:33:20;;;;;;;14.98;2.85;;;10.70;99.90;;;;;;4819171;29;20030;-79
2022/12/22 18:36:29;;;;;;;10.93;2.60;;;10.70;99.90;;;;;;4834859;29;20057;-81
2022/12/22 18:39:03;;;;;;;17.08;2.90;;;10.70;99.90;;;;;;4835103;29;20042;-80
2022/12/22 18:41:55;;;;;;;13.75;2.60;;;10.80;99.90;;;;;;4818745;29;20213;-81
2022/12/22 18:44:35;;;;;;;13.77;2.22;;;10.90;99.90;;;;;;4836117;29;20022;-78
2022/12/22 18:47:01;;;;;;;15.52;2.53;;;10.90;99.90;;;;;;4834781;29;20035;-79
2022/12/22 18:49:28;;;;;;;13.75;3.03;;;10.90;99.90;;;;;;4834476;29;20178;-81
2022/12/22 18:52:00;;;;;;;14.48;3.03;;;11.00;99.90;;;;;;4834379;29;20373;-81
2022/12/22 18:54:35;;;;;;;14.97;3.30;;;11.00;99.90;;;;;;4834626;29;20113;-82
2022/12/22 18:57:26;;;;;;;16.35;3.80;;;11.00;99.90;;;;;;4834339;29;20030;-78
2022/12/22 18:59:52;;;;;;;11.20;2.53;;;11.00;99.90;;;;;;4834373;29;20128;-79
2022/12/22 19:02:28;;;;;;;14.80;2.60;;;10.90;99.90;;;;;;4833857;29;20050;-79
2022/12/22 19:04:57;;;;;;;10.57;2.33;;;10.90;99.90;;;;;;4834815;29;20296;-80
2022/12/22 19:08:04;;;;;;;10.35;2.50;;;10.80;99.90;;;;;;4824397;29;20308;-81
2022/12/22 19:11:10;;;;;;;11.93;2.90;;;10.80;99.90;;;;;;4834041;29;20035;-79
2022/12/22 19:14:04;;;;;;;13.77;2.80;;;10.70;99.90;;;;;;4834471;29;20066;-78
2022/12/22 19:16:45;;;;;;;16.23;4.05;;;10.60;99.90;;;;;;4818951;29;20050;-79
2022/12/22 19:19:32;;;;;;;10.73;2.75;;;10.60;99.90;;;;;;4835551;29;20031;-80
2022/12/22 19:22:02;;;;;;;14.65;3.85;;;10.60;99.90;;;;;;4816331;29;20046;-79
2022/12/22 19:24:31;;;;;;;;;;;10.60;99.90;;;;;;4817599;29;20054;-79
2022/12/22 19:27:02;;;;;;;12.40;2.70;;;10.60;99.90;;;;;;4831333;29;19934;-78
2022/12/22 19:29:53;;;;;;;11.07;2.80;;;10.60;99.90;;;;;;4815520;29;20043;-80
2022/12/22 19:32:34;;;;;;;13.90;2.72;;;10.60;99.90;;;;;;4816576;29;20262;-79
2022/12/22 19:35:00;;;;;;;12.70;2.90;;;10.70;99.90;;;;;;4816509;29;20041;-80
2022/12/22 19:37:26;;;;;;;13.75;3.17;;;10.70;99.90;;;;;;4814936;29;20019;-79
2022/12/22 19:39:54;;;;;;;21.95;5.78;;;10.70;99.90;;;;;;4815603;29;20259;-81
2022/12/22 19:42:47;;;;;;;17.88;4.93;;;10.80;99.90;;;;;;4831294;29;20043;-81
2022/12/22 19:45:20;;;;;;;16.20;3.83;;;10.80;99.90;;;;;;4788489;29;20227;-79
2022/12/22 19:47:46;;;;;;;16.33;3.75;;;10.80;99.90;;;;;;4839127;29;20326;-79